FW5810 Weather Reports


time (UTC)temp
C
wind
direction
speed
KPH
gust
KPH
rain 1hr
cm
rain 24hr
cm
rain mn
cm
humidity
%
barometer
mb
20200803145537 23 289 4.8 16.1 0.00 0.03 0.03 77 1017.7
20200803145034 24 262 3.2 14.5 0.00 0.03 0.03 77 1017.7
20200803144532 25 218 9.7 12.9 0.00 0.03 0.03 75 1017.7
20200803144029 24 230 6.4 8.0 0.00 0.03 0.03 76 1017.6
20200803143527 24 328 4.8 8.0 0.00 0.03 0.03 78 1017.6
20200803143025 23 176 6.4 8.0 0.00 0.03 0.03 77 1017.6
20200803142522 23 255 4.8 12.9 0.00 0.03 0.03 77 1017.7
20200803142022 23 276 0.0 8.0 0.00 0.03 0.03 79 1017.8
20200803141519 23 171 4.8 11.3 0.00 0.03 0.03 78 1017.5
20200803141018 23 304 0.0 1.6 0.00 0.03 0.03 78 1017.6
20200803140513 23 318 0.0 4.8 0.00 0.03 0.03 79 1017.6
20200803140008 22 312 0.0 1.6 0.00 0.03 0.03 80 1017.7
20200803135504 22 286 4.8 12.9 0.00 0.03 0.03 81 1017.9
20200803135001 22 160 14.5 17.7 0.00 0.03 0.03 80 1017.9
20200803134458 22 197 1.6 6.4 0.00 0.03 0.03 84 1018.1
20200803133957 21 284 0.0 1.6 0.00 0.03 0.03 85 1017.9
20200803133454 21 228 6.4 8.0 0.00 0.03 0.03 85 1017.9
20200803132945 21 268 0.0 4.8 0.00 0.03 0.03 86 1017.9
20200803132442 20 192 3.2 4.8 0.00 0.03 0.03 88 1017.8
20200803131938 20 133 8.0 11.3 0.00 0.03 0.03 90 1017.9
20200803131433 20 133 8.0 8.0 0.00 0.03 0.03 92 1017.8
20200803130933 19 186 8.0 8.0 0.00 0.03 0.03 93 1018.0
20200803130425 19 273 0.0 0.0 0.00 0.03 0.03 95 1017.9
20200803125922 18 227 3.2 8.0 0.00 0.03 0.03 96 1017.7
20200803125418 18 136 4.8 12.9 0.00 0.03 0.03 97 1017.7
20200803124910 18 174 6.4 8.0 0.00 0.03 0.03 97 1017.9
20200803124408 18 141 0.0 1.6 0.00 0.03 0.03 98 1018.0
20200803123908 18 259 0.0 0.0 0.00 0.03 0.03 98 1017.8
20200803123407 18 258 0.0 0.0 0.00 0.03 0.03 98 1017.8
20200803122901 18 262 0.0 0.0 0.00 0.03 0.03 98 1017.9
20200803122357 17 296 0.0 0.0 0.00 0.03 0.03 99 1017.8
20200803121853 17 171 0.0 1.6 0.00 0.03 0.03 99 1017.8
20200803121353 17 292 0.0 0.0 0.00 0.03 0.03 99 1017.6
20200803120857 17 318 0.0 0.0 0.00 0.03 0.03 99 1017.7
20200803120350 17 251 0.0 1.6 0.00 0.03 0.03 99 1017.7
20200803115847 17 233 3.2 4.8 0.00 0.03 0.03 99 1017.6
20200803115342 17 281 0.0 1.6 0.00 0.03 0.03 99 1017.6
20200803114841 17 287 1.6 4.8 0.00 0.03 0.03 99 1017.5
20200803114341 17 286 0.0 0.0 0.00 0.03 0.03 99 1017.5
20200803113839 17 223 0.0 1.6 0.00 0.03 0.03 99 1017.5
20200803113336 17 158 0.0 0.0 0.00 0.03 0.03 99 1017.3
20200803112835 17 167 0.0 0.0 0.00 0.03 0.03 99 1017.3
20200803112332 17 209 0.0 0.0 0.00 0.03 0.03 99 1017.2
20200803111828 17 269 0.0 0.0 0.00 0.03 0.03 99 1017.4
20200803111323 17 159 0.0 0.0 0.00 0.03 0.03 99 1017.6
20200803110821 17 235 0.0 0.0 0.00 0.03 0.03 99 1017.5
20200803110319 17 225 0.0 0.0 0.00 0.03 0.03 99 1017.4
20200803105817 16 298 0.0 0.0 0.00 0.03 0.03 99 1017.3
20200803105313 16 287 0.0 0.0 0.00 0.03 0.03 99 1017.5
20200803104810 17 278 0.0 0.0 0.00 0.03 0.03 99 1017.2
20200803104305 17 330 0.0 0.0 0.00 0.03 0.03 99 1017.1
20200803103804 17 296 0.0 0.0 0.00 0.03 0.03 99 1017.1
20200803103304 16 305 0.0 0.0 0.00 0.03 0.03 99 1017.1
20200803102803 17 308 0.0 0.0 0.00 0.03 0.03 99 1017.1
20200803102301 17 307 0.0 0.0 0.00 0.03 0.03 99 1017.0
20200803101758 17 180 0.0 0.0 0.00 0.03 0.03 99 1017.3
20200803101257 16 280 0.0 0.0 0.00 0.03 0.03 99 1017.1
20200803100753 16 319 0.0 0.0 0.00 0.03 0.03 99 1016.9
20200803100248 16 319 0.0 0.0 0.00 0.03 0.03 99 1016.9
20200803095740 16 297 0.0 0.0 0.00 0.03 0.03 99 1017.0
20200803095238 16 213 0.0 0.0 0.00 0.03 0.03 99 1016.6
20200803094731 16 324 0.0 0.0 0.00 0.03 0.03 99 1016.7
20200803094229 16 318 0.0 0.0 0.00 0.03 0.03 99 1016.5
20200803093728 16 321 0.0 0.0 0.00 0.03 0.03 99 1016.4
20200803093224 16 323 0.0 0.0 0.00 0.03 0.03 99 1016.5
20200803092720 16 323 0.0 0.0 0.00 0.03 0.03 99 1016.6
20200803092217 16 323 0.0 0.0 0.00 0.03 0.03 99 1016.5
20200803091715 16 323 0.0 0.0 0.00 0.03 0.03 99 1016.4
20200803091209 16 238 0.0 0.0 0.00 0.03 0.03 99 1016.5
20200803090703 16 292 0.0 0.0 0.00 0.03 0.03 99 1016.5
20200803090203 16 249 0.0 0.0 0.00 0.03 0.03 99 1016.5
20200803085700 16 307 0.0 0.0 0.00 0.03 0.03 99 1016.5
20200803085156 16 334 0.0 0.0 0.00 0.03 0.03 99 1016.7
20200803084652 16 290 0.0 0.0 0.00 0.03 0.03 99 1016.5
20200803084148 16 298 0.0 0.0 0.00 0.03 0.03 98 1016.7
20200803083639 16 298 0.0 0.0 0.00 0.03 0.03 99 1016.7
20200803083134 16 298 0.0 0.0 0.00 0.03 0.03 99 1016.6
20200803082629 16 298 0.0 0.0 0.00 0.03 0.03 98 1016.7
20200803082128 16 298 0.0 0.0 0.00 0.03 0.03 99 1016.7
20200803081629 16 297 0.0 0.0 0.00 0.03 0.03 99 1016.9
20200803081126 16 272 0.0 0.0 0.00 0.03 0.03 98 1016.7
20200803080625 16 304 0.0 0.0 0.00 0.03 0.03 98 1016.5
20200803080123 16 294 0.0 0.0 0.00 0.03 0.03 98 1016.6
20200803075620 16 311 0.0 0.0 0.00 0.03 0.03 98 1016.9
20200803075118 16 280 0.0 0.0 0.00 0.03 0.03 98 1016.9
20200803074615 16 297 0.0 0.0 0.00 0.03 0.03 98 1016.7
20200803074112 16 297 0.0 0.0 0.00 0.03 0.03 98 1017.0
20200803073610 16 297 0.0 0.0 0.00 0.03 0.03 98 1016.9
20200803073107 16 286 0.0 0.0 0.00 0.03 0.03 98 1016.7
20200803072601 16 304 0.0 0.0 0.00 0.03 0.03 98 1016.7
20200803072057 16 304 0.0 0.0 0.00 0.03 0.03 98 1016.6
20200803071553 16 304 0.0 0.0 0.00 0.03 0.03 98 1016.6
20200803071049 16 304 0.0 0.0 0.00 0.03 0.03 98 1016.9
20200803070545 16 307 0.0 0.0 0.00 0.03 0.03 98 1016.7
20200803070039 16 298 0.0 0.0 0.00 0.03 0.03 98 1016.5
20200803065533 17 298 0.0 0.0 0.00 0.03 0.03 98 1016.6
20200803065032 17 293 0.0 0.0 0.00 0.03 0.03 98 1016.6
20200803064530 17 308 0.0 0.0 0.00 0.03 0.03 98 1016.6
20200803064028 17 309 0.0 0.0 0.00 0.03 0.03 98 1016.6
20200803063527 17 300 0.0 0.0 0.00 0.03 0.03 98 1016.7
20200803063025 17 299 0.0 0.0 0.00 0.03 0.03 98 1016.9
20200803062520 17 300 0.0 0.0 0.00 0.03 0.03 98 1016.9
20200803062018 17 304 0.0 0.0 0.00 0.03 0.03 98 1016.7
20200803061516 17 304 0.0 0.0 0.00 0.03 0.03 98 1016.9
20200803061013 17 304 0.0 0.0 0.00 0.03 0.03 98 1016.7
20200803060512 17 296 0.0 0.0 0.18 0.03 0.03 98 1016.7
20200803060009 17 296 0.0 0.0 0.00 0.00 0.00 98 1016.6
20200803055506 17 318 0.0 0.0 0.00 0.00 0.00 98 1016.7
20200803055005 17 301 0.0 0.0 0.00 0.00 0.00 98 1016.6
20200803054505 17 297 0.0 0.0 0.00 0.00 0.00 98 1017.1
20200803053959 17 297 0.0 0.0 0.00 0.00 0.00 98 1016.7
20200803053459 17 294 0.0 0.0 0.00 0.00 0.00 98 1016.9
20200803052958 17 281 0.0 0.0 0.00 0.00 0.00 98 1016.7
20200803052453 17 290 0.0 0.0 0.00 0.00 0.00 98 1016.7
20200803051947 17 302 0.0 0.0 0.00 0.00 0.00 98 1016.9
20200803051446 17 301 0.0 0.0 0.00 0.00 0.00 98 1017.0
20200803050942 17 308 0.0 0.0 0.00 0.00 0.00 98 1016.9
20200803050437 17 290 0.0 0.0 0.00 0.00 0.00 98 1016.6
20200803045931 17 292 0.0 0.0 0.00 0.00 0.00 98 1017.0
20200803045431 17 300 0.0 0.0 0.00 0.00 0.00 98 1016.6
20200803044926 17 315 0.0 0.0 0.00 0.00 0.00 98 1016.6
20200803044422 17 221 0.0 0.0 0.00 0.00 0.00 98 1016.6
20200803043918 17 259 0.0 0.0 0.00 0.00 0.00 98 1016.9
20200803043418 17 294 0.0 4.8 0.00 0.00 0.00 98 1016.7
20200803042911 17 203 0.0 0.0 0.00 0.00 0.00 98 1016.9
20200803042410 17 273 0.0 0.0 0.00 0.00 0.00 98 1016.7
20200803041907 17 259 0.0 0.0 0.00 0.00 0.00 98 1016.6
20200803041405 17 284 0.0 0.0 0.00 0.00 0.00 98 1016.6
20200803040859 17 289 0.0 0.0 0.00 0.00 0.00 98 1016.4
20200803040355 17 294 0.0 0.0 0.00 0.00 0.00 98 1016.5
20200803035847 17 356 0.0 0.0 0.00 0.28 0.28 97 1016.5
20200803035342 17 289 0.0 0.0 0.00 0.28 0.28 97 1016.3
20200803034838 17 279 0.0 0.0 0.00 0.28 0.28 97 1016.6
20200803034337 17 302 0.0 0.0 0.00 0.28 0.28 98 1016.4
20200803033835 18 297 0.0 0.0 0.00 0.28 0.28 97 1016.5
20200803033334 18 301 0.0 0.0 0.00 0.28 0.28 97 1016.5
20200803032832 17 284 0.0 0.0 0.00 0.28 0.28 97 1016.5
20200803032326 18 295 0.0 0.0 0.00 0.28 0.28 97 1016.3
20200803031825 18 302 0.0 0.0 0.00 0.28 0.28 97 1016.3
20200803031320 18 302 0.0 0.0 0.00 0.28 0.28 97 1016.4
20200803030816 18 292 0.0 0.0 0.00 0.28 0.28 97 1016.2
20200803030312 18 319 0.0 0.0 0.00 0.28 0.28 97 1016.4
20200803025812 18 319 0.0 0.0 0.00 0.28 0.28 97 1016.3
20200803025309 18 313 0.0 0.0 0.00 0.28 0.28 97 1016.3
20200803024807 18 303 0.0 0.0 0.00 0.28 0.28 97 1016.1
20200803024307 18 309 0.0 0.0 0.00 0.28 0.28 97 1016.3
20200803023804 18 55 1.6 4.8 0.00 0.28 0.28 97 1016.3
20200803023301 18 302 0.0 0.0 0.00 0.28 0.28 97 1016.2
20200803022755 18 249 0.0 0.0 0.00 0.28 0.28 97 1016.5
20200803022251 18 285 0.0 0.0 0.00 0.28 0.28 97 1016.2
20200803021745 18 303 0.0 0.0 0.00 0.28 0.28 97 1016.1
20200803021244 18 283 0.0 0.0 0.00 0.28 0.28 97 1016.1
20200803020741 18 297 0.0 0.0 0.00 0.28 0.28 97 1016.0
20200803020238 18 302 0.0 0.0 0.00 0.28 0.28 97 1015.9
20200803015734 18 203 0.0 0.0 0.00 0.28 0.28 97 1016.1
20200803015230 18 166 0.0 1.6 0.00 0.28 0.28 97 1015.7
20200803014728 18 289 0.0 0.0 0.00 0.28 0.28 97 1015.9
20200803014226 18 286 0.0 0.0 0.00 0.28 0.28 97 1016.0
20200803013721 18 318 0.0 0.0 0.00 0.28 0.28 97 1015.9
20200803013216 18 318 0.0 0.0 0.00 0.28 0.28 97 1015.9
20200803012714 18 308 0.0 0.0 0.00 0.28 0.28 96 1015.8
20200803012212 18 302 0.0 0.0 0.00 0.28 0.28 96 1015.6
20200803011709 18 321 0.0 0.0 0.00 0.28 0.28 96 1015.9
20200803011205 18 273 0.0 0.0 0.00 0.28 0.28 96 1015.7
20200803010705 18 309 0.0 0.0 0.00 0.28 0.28 96 1015.5
20200803010159 18 300 0.0 0.0 0.00 0.28 0.28 96 1015.5
20200803005651 18 272 0.0 1.6 0.00 0.28 0.28 96 1015.4
20200803005151 18 310 0.0 1.6 0.00 0.28 0.28 96 1015.2
20200803004648 18 298 0.0 0.0 0.00 0.28 0.28 96 1015.0
20200803004141 18 309 0.0 0.0 0.00 0.28 0.28 96 1015.1
20200803003640 18 291 0.0 0.0 0.00 0.28 0.28 96 1015.3
20200803003137 18 295 0.0 0.0 0.00 0.28 0.28 96 1015.1
20200803002636 18 303 0.0 0.0 0.00 0.28 0.28 96 1015.0
20200803002134 18 315 0.0 0.0 0.00 0.28 0.28 96 1015.0
20200803001634 18 310 0.0 0.0 0.00 0.28 0.28 96 1014.9
20200803001129 18 323 0.0 0.0 0.00 0.28 0.28 96 1014.9
20200803000624 18 324 0.0 0.0 0.00 0.28 0.28 96 1014.5
20200803000124 18 304 0.0 0.0 0.00 0.28 0.28 96 1014.7
20200802235621 18 310 0.0 0.0 0.00 0.28 0.28 96 1014.7
20200802235119 18 299 0.0 1.6 0.00 0.28 0.28 96 1014.5
20200802234617 18 299 0.0 1.6 0.00 0.28 0.28 96 1014.4
20200802234114 18 311 0.0 4.8 0.00 0.28 0.28 96 1014.3
20200802233611 18 321 0.0 4.8 0.00 0.28 0.28 96 1014.4
20200802233107 18 316 0.0 1.6 0.00 0.28 0.28 96 1014.3
20200802232605 18 306 0.0 4.8 0.00 0.28 0.28 96 1014.2
20200802232104 18 306 0.0 4.8 0.00 0.28 0.28 96 1014.0
20200802231558 18 286 0.0 1.6 0.00 0.28 0.28 96 1014.1
20200802231056 18 300 0.0 0.0 0.00 0.28 0.28 96 1013.9
20200802230556 18 312 3.2 6.4 0.00 0.28 0.28 96 1013.8
20200802230054 18 326 1.6 8.0 0.00 0.28 0.28 96 1014.0
20200802225552 18 229 0.0 4.8 0.00 0.28 0.28 96 1013.8
20200802225047 18 283 3.2 8.0 0.00 0.28 0.28 96 1013.8
20200802224544 18 299 0.0 8.0 0.00 0.28 0.28 96 1013.7
20200802224044 18 200 3.2 4.8 0.00 0.28 0.28 96 1013.5
20200802223537 18 279 1.6 11.3 0.00 0.28 0.28 96 1013.7
20200802223035 18 322 0.0 1.6 0.00 0.28 0.28 96 1013.7
20200802222535 18 297 0.0 4.8 0.00 0.28 0.28 96 1013.5
20200802222034 18 127 1.6 12.9 0.00 0.28 0.28 96 1013.5
20200802221529 18 266 1.6 6.4 0.10 0.28 0.28 96 1013.5
20200802221027 19 317 0.0 1.6 0.10 0.28 0.28 95 1013.4
20200802220525 18 300 0.0 4.8 0.00 0.25 0.25 95 1013.4
20200802220024 18 334 0.0 11.3 0.00 0.25 0.25 95 1013.2
20200802215517 19 248 3.2 11.3 0.00 0.25 0.25 95 1013.1
20200802215014 19 310 0.0 6.4 0.00 0.25 0.25 95 1013.4
20200802214512 19 256 8.0 14.5 0.18 0.25 0.25 94 1013.0
20200802214008 19 256 6.4 11.3 0.00 0.23 0.23 94 1013.0
20200802213506 19 207 6.4 16.1 0.10 0.23 0.23 94 1013.0
20200802213003 19 251 1.6 11.3 0.10 0.23 0.23 94 1013.0
20200802212457 19 33 0.0 14.5 0.00 0.20 0.20 93 1012.8
20200802211956 20 85 3.2 17.7 0.00 0.20 0.20 93 1012.7
20200802211454 20 6 4.8 8.0 0.00 0.20 0.20 92 1012.8
20200802210952 20 257 8.0 16.1 0.00 0.20 0.20 92 1012.6
20200802210448 20 302 0.0 12.9 0.00 0.20 0.20 91 1012.6
20200802205948 20 270 0.0 8.0 0.00 0.20 0.20 91 1012.5
20200802205442 20 312 0.0 11.3 0.00 0.20 0.20 90 1012.6
20200802204937 20 137 1.6 8.0 0.00 0.20 0.20 89 1012.4
20200802204434 20 326 1.6 14.5 0.00 0.20 0.20 87 1012.3
20200802203927 20 280 0.0 4.8 0.00 0.20 0.20 88 1012.2
20200802203427 20 305 3.2 8.0 0.00 0.20 0.20 88 1012.3
20200802202923 20 323 8.0 14.5 0.00 0.20 0.20 88 1012.3
20200802202422 20 315 11.3 14.5 0.00 0.20 0.20 87 1012.1
20200802201918 20 274 4.8 12.9 0.00 0.20 0.20 88 1012.0
20200802201416 20 342 1.6 11.3 0.00 0.20 0.20 89 1011.9
20200802200913 20 273 8.0 11.3 0.00 0.20 0.20 89 1011.8
20200802200410 20 294 3.2 8.0 0.00 0.20 0.20 88 1011.7
20200802195910 20 312 8.0 14.5 0.00 0.20 0.20 88 1011.8
20200802195405 20 300 0.0 6.4 0.00 0.20 0.20 89 1011.7
20200802194903 20 26 3.2 11.3 0.00 0.20 0.20 88 1011.6
20200802194401 20 322 4.8 6.4 0.00 0.20 0.20 88 1011.7
20200802193859 20 275 3.2 11.3 0.00 0.20 0.20 87 1011.7
20200802193354 20 292 11.3 29.0 0.00 0.20 0.20 87 1011.6
20200802192850 20 315 8.0 22.5 0.00 0.20 0.20 87 1011.6
20200802192349 20 220 4.8 17.7 0.00 0.20 0.20 90 1011.5
20200802191842 20 164 0.0 6.4 0.00 0.20 0.20 90 1011.4
20200802191340 20 228 4.8 14.5 0.00 0.20 0.20 90 1011.3
20200802190838 20 240 9.7 12.9 0.00 0.20 0.20 90 1011.4
20200802190336 20 223 8.0 20.9 0.00 0.20 0.20 91 1011.3
20200802185832 20 249 4.8 11.3 0.00 0.20 0.20 91 1011.2
20200802185331 20 2 4.8 14.5 0.00 0.20 0.20 92 1011.1
20200802184826 20 232 6.4 12.9 0.00 0.20 0.20 93 1011.3
20200802184321 20 229 3.2 6.4 0.18 0.20 0.20 93 1011.2
20200802183819 20 215 1.6 17.7 0.18 0.20 0.20 92 1011.0
20200802183316 20 205 1.6 14.5 0.00 0.18 0.18 91 1011.0
20200802182813 21 294 6.4 12.9 0.00 0.18 0.18 89 1010.9
20200802182313 21 295 8.0 17.7 0.00 0.18 0.18 88 1010.9
20200802181810 21 264 9.7 14.5 0.00 0.18 0.18 89 1010.7
20200802181309 20 277 1.6 14.5 0.00 0.18 0.18 90 1010.7
20200802180807 20 222 3.2 14.5 0.00 0.18 0.18 91 1010.6
20200802180302 20 231 8.0 12.9 0.00 0.18 0.18 91 1010.6
20200802175758 20 248 4.8 17.7 0.10 0.18 0.18 91 1010.5
20200802175255 21 289 4.8 11.3 0.00 0.15 0.15 91 1010.5
20200802174753 21 236 12.9 14.5 0.00 0.15 0.15 88 1010.7
20200802174250 21 236 4.8 8.0 0.00 0.15 0.15 87 1010.6
20200802173745 21 225 4.8 8.0 0.00 0.15 0.15 88 1010.5
20200802173244 21 306 1.6 11.3 0.00 0.15 0.15 88 1010.5
20200802172743 21 330 9.7 14.5 0.00 0.15 0.15 89 1010.2
20200802172238 21 298 3.2 12.9 0.00 0.15 0.15 90 1010.1
20200802171735 21 285 6.4 14.5 0.00 0.15 0.15 90 1010.2
20200802171231 21 274 6.4 11.3 0.00 0.15 0.15 90 1010.2
20200802170729 21 291 3.2 8.0 0.00 0.15 0.15 90 1010.2
20200802170228 21 190 3.2 14.5 0.00 0.15 0.15 89 1010.3
20200802165724 21 259 6.4 8.0 0.00 0.15 0.15 89 1010.0
20200802165219 21 289 1.6 6.4 0.00 0.15 0.15 89 1010.0
20200802164715 21 339 4.8 8.0 0.00 0.15 0.15 90 1009.9
20200802164211 21 226 4.8 6.4 0.00 0.15 0.15 90 1009.9
20200802163711 21 247 8.0 11.3 0.00 0.15 0.15 90 1009.8
20200802163205 21 245 4.8 8.0 0.00 0.15 0.15 91 1009.8
20200802162703 21 300 4.8 8.0 0.00 0.15 0.15 91 1009.7
20200802162202 21 218 3.2 8.0 0.00 0.15 0.15 92 1009.8
20200802161700 20 264 4.8 11.3 0.00 0.15 0.15 93 1009.7
20200802161155 20 316 6.4 16.1 0.00 0.15 0.15 93 1009.7
20200802160652 20 215 1.6 6.4 0.00 0.15 0.15 94 1009.7
20200802160149 20 190 3.2 16.1 0.00 0.15 0.15 94 1009.7
20200802155646 20 253 8.0 12.9 0.00 0.15 0.15 94 1009.6
20200802155141 20 195 6.4 8.0 0.00 0.15 0.15 94 1009.6
20200802154638 20 259 3.2 12.9 0.00 0.15 0.15 94 1009.4
20200802154138 20 237 1.6 11.3 0.00 0.15 0.15 94 1009.4
20200802153634 20 255 4.8 11.3 0.00 0.15 0.15 94 1009.5
20200802153128 21 173 8.0 22.5 0.18 0.15 0.15 93 1009.3
20200802152624 21 287 3.2 16.1 0.18 0.13 0.13 93 1009.3
20200802152120 21 232 4.8 6.4 0.18 0.13 0.13 93 1009.3
20200802151619 21 248 6.4 11.3 0.00 0.08 0.08 91 1009.3
20200802151115 21 232 6.4 8.0 0.00 0.08 0.08 90 1009.2
20200802150611 22 342 4.8 12.9 0.00 0.08 0.08 88 1009.2
20200802150107 22 277 8.0 16.1 0.00 0.08 0.08 87 1009.1
20200802145604 22 216 4.8 12.9 0.00 0.08 0.08 86 1008.9